createdAt,value
2022-09-24T00:01:43.970Z,144.27
2022-09-24T00:04:13.489Z,136.17
2022-09-24T00:06:43.359Z,107.53
2022-09-24T00:09:11.987Z,160.67
2022-09-24T00:11:40.597Z,213.40
2022-09-24T00:14:09.149Z,139.33
2022-09-24T00:16:37.427Z,160.43
2022-09-24T00:19:06.972Z,137.03
2022-09-24T00:21:36.671Z,197.33
2022-09-24T00:24:07.379Z,221.90
2022-09-24T00:26:49.907Z,182.43
2022-09-24T00:29:19.397Z,202.77
2022-09-24T00:31:47.774Z,210.37
2022-09-24T00:34:17.673Z,246.23
2022-09-24T00:36:46.230Z,215.47
2022-09-24T00:39:14.674Z,217.27
2022-09-24T00:41:47.242Z,207.50
2022-09-24T00:44:50.945Z,234.53
2022-09-24T00:47:29.955Z,253.27
2022-09-24T00:50:06.425Z,239.57
2022-09-24T00:52:35.118Z,183.53
2022-09-24T00:55:03.213Z,186.53
2022-09-24T00:57:31.747Z,142.47
2022-09-24T01:00:00.249Z,141.63
2022-09-24T01:02:28.394Z,210.00
2022-09-24T01:04:56.932Z,200.83
2022-09-24T01:07:26.532Z,220.40
2022-09-24T01:09:54.682Z,199.90
2022-09-24T01:12:28.419Z,262.00
2022-09-24T01:15:05.974Z,293.47
2022-09-24T01:17:38.277Z,221.43
2022-09-24T01:20:29.803Z,212.80
2022-09-24T01:23:15.401Z,197.40
2022-09-24T01:25:50.060Z,224.53
2022-09-24T01:28:35.356Z,296.57
2022-09-24T01:31:08.897Z,215.17
2022-09-24T01:33:37.716Z,205.63
2022-09-24T01:36:08.570Z,186.83
2022-09-24T01:38:39.857Z,252.57
2022-09-24T01:41:08.841Z,244.70
2022-09-24T01:43:38.491Z,250.40
2022-09-24T01:46:08.406Z,256.67
2022-09-24T01:48:37.550Z,214.50
2022-09-24T01:51:10.253Z,210.73
2022-09-24T01:53:42.629Z,135.07
2022-09-24T01:56:15.975Z,152.67
2022-09-24T01:58:48.671Z,140.87
2022-09-24T02:01:20.488Z,181.70
2022-09-24T02:03:52.718Z,167.70
2022-09-24T02:06:26.180Z,200.53
2022-09-24T02:08:57.616Z,260.80
2022-09-24T02:11:25.851Z,227.93
2022-09-24T02:13:56.983Z,237.93
2022-09-24T02:16:29.281Z,239.73
2022-09-24T02:18:59.321Z,170.30
2022-09-24T02:21:28.541Z,177.50
2022-09-24T02:24:06.673Z,168.60
2022-09-24T02:26:34.898Z,174.87
2022-09-24T02:29:03.133Z,186.70
2022-09-24T02:31:34.622Z,178.40
2022-09-24T02:34:23.667Z,195.73
2022-09-24T02:36:54.259Z,178.77
2022-09-24T02:39:22.637Z,198.93
2022-09-24T02:41:51.326Z,257.37
2022-09-24T02:44:19.797Z,163.83
2022-09-24T02:46:50.424Z,257.27
2022-09-24T02:49:18.883Z,229.77
2022-09-24T02:51:46.950Z,279.80
2022-09-24T02:54:15.006Z,197.00
2022-09-24T02:56:43.183Z,240.73
2022-09-24T02:59:12.282Z,299.53
2022-09-24T03:01:40.590Z,245.23
2022-09-24T03:04:10.452Z,313.13
2022-09-24T03:06:38.925Z,266.07
2022-09-24T03:09:07.141Z,222.90
2022-09-24T03:11:35.735Z,267.20
2022-09-24T03:14:03.712Z,258.13
2022-09-24T03:16:31.812Z,310.20
2022-09-24T03:18:59.874Z,301.47
2022-09-24T03:21:29.263Z,313.63
2022-09-24T03:23:57.218Z,280.80
2022-09-24T03:26:25.292Z,271.83
2022-09-24T03:28:53.720Z,329.77
2022-09-24T03:31:23.320Z,290.33
2022-09-24T03:33:51.839Z,319.53
2022-09-24T03:36:21.614Z,275.07
2022-09-24T03:38:52.619Z,292.70
2022-09-24T03:41:20.558Z,303.27
2022-09-24T03:43:48.508Z,326.37
2022-09-24T03:46:17.238Z,394.53
2022-09-24T03:48:47.236Z,234.27
2022-09-24T03:51:20.181Z,317.13
2022-09-24T03:53:49.019Z,342.87
2022-09-24T03:56:18.345Z,328.13
2022-09-24T03:58:47.614Z,298.87
2022-09-24T04:01:21.691Z,329.50
2022-09-24T04:03:50.415Z,341.33
2022-09-24T04:06:23.413Z,313.97
2022-09-24T04:08:54.045Z,331.10
2022-09-24T04:11:23.998Z,331.10
2022-09-24T04:13:52.440Z,360.93
2022-09-24T04:16:20.489Z,369.20
2022-09-24T04:18:48.812Z,373.20
2022-09-24T04:21:16.805Z,348.20
2022-09-24T04:23:44.890Z,358.03
2022-09-24T04:26:12.957Z,313.57
2022-09-24T04:28:42.393Z,261.63
2022-09-24T04:31:10.475Z,331.37
2022-09-24T04:33:38.457Z,349.17
2022-09-24T04:36:06.557Z,345.50
2022-09-24T04:38:34.703Z,309.07
2022-09-24T04:41:06.925Z,355.17
2022-09-24T04:43:36.846Z,385.20
2022-09-24T04:46:06.877Z,380.67
2022-09-24T04:48:38.379Z,414.73
2022-09-24T04:51:06.928Z,337.73
2022-09-24T04:53:36.721Z,348.63
2022-09-24T04:56:05.098Z,358.73
2022-09-24T04:58:33.321Z,405.83
2022-09-24T05:01:03.957Z,428.27
2022-09-24T05:03:33.329Z,390.60
2022-09-24T05:06:01.950Z,340.90
2022-09-24T05:08:30.010Z,340.50
2022-09-24T05:10:58.000Z,395.00
2022-09-24T05:13:26.213Z,348.27
2022-09-24T05:15:54.293Z,389.00
2022-09-24T05:18:22.498Z,380.00
2022-09-24T05:20:52.382Z,373.77
2022-09-24T05:23:20.470Z,406.57
2022-09-24T05:26:06.027Z,386.33
2022-09-24T05:28:35.289Z,334.87
2022-09-24T05:31:03.486Z,397.80
2022-09-24T05:33:31.637Z,455.77
2022-09-24T05:36:00.958Z,406.20
2022-09-24T05:38:29.960Z,411.10
2022-09-24T05:40:58.114Z,416.07
2022-09-24T05:43:27.749Z,361.13
2022-09-24T05:45:58.586Z,412.33
2022-09-24T05:48:26.949Z,380.83
2022-09-24T05:50:55.692Z,444.70
2022-09-24T05:53:25.621Z,461.70
2022-09-24T05:55:53.577Z,371.23
2022-09-24T05:58:21.611Z,409.63
2022-09-24T06:00:49.940Z,378.40
2022-09-24T06:03:19.739Z,385.07
2022-09-24T06:05:49.635Z,443.10
2022-09-24T06:08:18.119Z,384.07
2022-09-24T06:10:48.619Z,489.07
2022-09-24T06:13:18.469Z,470.93
2022-09-24T06:15:47.137Z,431.80
2022-09-24T06:18:15.284Z,409.37
2022-09-24T06:20:43.540Z,413.77
2022-09-24T06:23:11.951Z,471.07
2022-09-24T06:25:39.891Z,479.90
2022-09-24T06:28:09.340Z,421.40
2022-09-24T06:30:39.405Z,474.63
2022-09-24T06:33:09.791Z,505.10
2022-09-24T06:35:38.335Z,456.87
2022-09-24T06:38:07.275Z,577.37
2022-09-24T06:40:37.458Z,484.53
2022-09-24T06:43:06.684Z,438.53
2022-09-24T06:45:36.305Z,490.03
2022-09-24T06:48:05.894Z,493.20
2022-09-24T06:50:35.559Z,453.60
2022-09-24T06:53:06.427Z,454.43
2022-09-24T06:55:34.928Z,399.40
2022-09-24T06:58:04.573Z,432.70
2022-09-24T07:00:32.675Z,514.33
2022-09-24T07:03:02.195Z,449.20
2022-09-24T07:05:30.905Z,554.85
2022-09-24T07:07:58.961Z,501.93
2022-09-24T07:10:28.015Z,439.10
2022-09-24T07:12:56.137Z,408.47
2022-09-24T07:15:24.082Z,367.37
2022-09-24T07:17:56.088Z,401.70
2022-09-24T07:20:28.078Z,458.27
2022-09-24T07:22:56.281Z,394.40
2022-09-24T07:25:24.171Z,362.47
2022-09-24T07:27:52.067Z,382.80
2022-09-24T07:30:20.082Z,401.03
2022-09-24T07:32:50.583Z,667.67
2022-09-24T07:35:21.030Z,336.60
2022-09-24T07:37:50.402Z,220.97
2022-09-24T07:40:18.462Z,192.20
2022-09-24T07:42:49.432Z,181.87
2022-09-24T07:45:18.197Z,164.33
2022-09-24T07:47:46.152Z,140.93
2022-09-24T07:50:14.062Z,140.53
2022-09-24T07:52:41.951Z,155.57
2022-09-24T07:55:11.294Z,130.37
2022-09-24T07:57:39.809Z,138.40
2022-09-24T08:00:09.168Z,119.80
2022-09-24T08:02:40.031Z,116.13
2022-09-24T08:05:08.618Z,93.17
2022-09-24T08:07:36.590Z,97.23
2022-09-24T08:10:05.056Z,104.73
2022-09-24T08:12:34.590Z,87.80
2022-09-24T08:15:02.570Z,81.13
2022-09-24T08:17:30.451Z,83.30
2022-09-24T08:19:58.758Z,82.63
2022-09-24T08:22:26.681Z,81.70
2022-09-24T08:24:54.936Z,72.37
2022-09-24T08:27:24.112Z,79.97
2022-09-24T08:29:53.573Z,65.67
2022-09-24T08:32:21.488Z,72.83
2022-09-24T08:34:49.398Z,82.57
2022-09-24T08:37:17.237Z,65.50
2022-09-24T08:39:45.302Z,66.70
2022-09-24T08:42:20.347Z,57.23
2022-09-24T08:45:07.923Z,57.77
2022-09-24T08:47:38.975Z,51.93
2022-09-24T08:50:15.372Z,50.83
2022-09-24T08:53:00.985Z,44.30
2022-09-24T08:55:33.884Z,43.77
2022-09-24T08:58:09.859Z,45.00
2022-09-24T09:00:43.713Z,44.93
2022-09-24T09:03:18.636Z,351.92
2022-09-24T09:05:53.955Z,37.43
2022-09-24T09:11:23.207Z,35.63
2022-09-24T09:13:54.215Z,36.43
2022-09-24T09:16:24.933Z,33.53
2022-09-24T09:18:57.498Z,36.83
2022-09-24T09:21:29.822Z,33.33
2022-09-24T09:23:59.037Z,29.67
2022-09-24T09:26:27.294Z,33.00
2022-09-24T09:29:00.095Z,32.03
2022-09-24T09:31:36.821Z,31.27
2022-09-24T09:34:29.830Z,27.50
2022-09-24T09:37:07.529Z,22.97
2022-09-24T09:39:40.431Z,24.57
2022-09-24T09:42:26.496Z,23.43
2022-09-24T09:44:54.685Z,24.67
2022-09-24T09:47:26.452Z,22.90
2022-09-24T09:49:59.146Z,22.40
2022-09-24T09:52:29.842Z,24.50
2022-09-24T09:54:57.898Z,19.70
2022-09-24T09:57:26.432Z,16.67
2022-09-24T09:59:55.100Z,19.90
2022-09-24T10:02:25.759Z,14.80
2022-09-24T10:04:57.660Z,16.17
2022-09-24T10:07:25.788Z,17.07
2022-09-24T10:10:05.374Z,15.67
2022-09-24T10:12:33.280Z,15.63
2022-09-24T10:15:02.858Z,14.80
2022-09-24T10:17:35.684Z,16.50
2022-09-24T10:20:09.674Z,14.20
2022-09-24T10:22:39.346Z,13.13
2022-09-24T10:25:07.890Z,13.90
2022-09-24T10:27:37.765Z,14.57
2022-09-24T10:30:31.478Z,13.90
2022-09-24T10:33:00.312Z,14.57
2022-09-24T10:35:31.354Z,13.10
2022-09-24T10:38:01.241Z,13.97
2022-09-24T10:40:31.244Z,14.07
2022-09-24T10:43:01.373Z,15.47
2022-09-24T10:45:43.686Z,15.50
2022-09-24T10:48:18.857Z,14.47
2022-09-24T10:50:54.405Z,13.97
2022-09-24T10:53:31.850Z,17.27
2022-09-24T10:56:05.389Z,17.40
2022-09-24T10:59:00.762Z,14.80
2022-09-24T11:01:33.488Z,13.87
2022-09-24T11:04:20.959Z,16.03
2022-09-24T11:07:09.200Z,18.93
2022-09-24T11:09:43.849Z,16.40
2022-09-24T11:12:16.565Z,16.87
2022-09-24T11:14:56.544Z,16.60
2022-09-24T11:17:33.442Z,16.23
2022-09-24T11:20:17.632Z,15.27
2022-09-24T11:22:57.940Z,12.67
2022-09-24T11:25:32.891Z,14.67
2022-09-24T11:28:14.897Z,15.10
2022-09-24T11:30:48.811Z,15.57
2022-09-24T11:33:27.264Z,16.13
2022-09-24T11:36:06.548Z,19.80
2022-09-24T11:38:49.667Z,17.80
2022-09-24T11:41:27.922Z,17.87
2022-09-24T11:44:18.683Z,16.63
2022-09-24T11:46:56.638Z,15.63
2022-09-24T11:49:39.059Z,16.47
2022-09-24T11:52:10.431Z,17.20
2022-09-24T11:54:45.262Z,15.53
2022-09-24T11:57:17.156Z,17.67
2022-09-24T11:59:51.033Z,18.30
2022-09-24T12:02:23.825Z,18.20
2022-09-24T12:04:58.690Z,20.57
2022-09-24T12:07:31.539Z,21.37
2022-09-24T12:10:04.336Z,18.87
2022-09-24T12:12:34.598Z,19.07
2022-09-24T12:15:05.704Z,17.83
2022-09-24T12:17:37.494Z,16.77
2022-09-24T12:20:09.826Z,18.30
2022-09-24T12:22:39.396Z,17.67
2022-09-24T12:25:13.224Z,18.30
2022-09-24T12:27:41.253Z,17.67
2022-09-24T12:30:43.620Z,15.63
2022-09-24T12:33:16.088Z,14.63
2022-09-24T12:35:55.935Z,13.03
2022-09-24T12:38:26.767Z,10.90
2022-09-24T12:41:12.717Z,11.97
2022-09-24T12:43:43.764Z,12.47
2022-09-24T12:46:17.953Z,12.43
2022-09-24T12:48:46.974Z,12.50
2022-09-24T12:51:15.543Z,12.30
2022-09-24T12:53:45.059Z,11.77
2022-09-24T12:56:24.961Z,11.77
2022-09-24T12:58:53.324Z,12.67
2022-09-24T13:01:30.404Z,13.30
2022-09-24T13:04:06.324Z,11.60
2022-09-24T13:06:36.582Z,13.40
2022-09-24T13:09:25.647Z,12.77
2022-09-24T13:12:04.690Z,12.27
2022-09-24T13:14:33.842Z,13.90
2022-09-24T13:17:06.714Z,13.87
2022-09-24T13:19:40.973Z,13.27
2022-09-24T13:22:21.875Z,12.87
2022-09-24T13:24:51.751Z,13.70
2022-09-24T13:27:24.958Z,13.00
2022-09-24T13:30:06.970Z,15.23
2022-09-24T13:32:38.492Z,14.00
2022-09-24T13:35:12.333Z,15.97
2022-09-24T13:37:42.782Z,15.30
2022-09-24T13:40:19.495Z,13.43
2022-09-24T13:42:51.175Z,13.37
2022-09-24T13:45:21.548Z,13.67
2022-09-24T13:47:52.650Z,13.90
2022-09-24T13:50:23.718Z,15.77
2022-09-24T13:52:54.973Z,14.10
2022-09-24T13:55:24.357Z,13.50
2022-09-24T13:57:53.768Z,14.07
2022-09-24T14:00:24.458Z,15.27
2022-09-24T14:02:58.970Z,14.50
2022-09-24T14:05:27.579Z,16.33
2022-09-24T14:08:04.824Z,14.17
2022-09-24T14:10:33.037Z,15.10
2022-09-24T14:13:17.430Z,14.17
2022-09-24T14:15:56.223Z,13.87
2022-09-24T14:18:25.039Z,13.60
2022-09-24T14:20:57.832Z,14.20
2022-09-24T14:23:28.377Z,14.30
2022-09-24T14:25:56.984Z,13.33
2022-09-24T14:28:26.501Z,13.40
2022-09-24T14:30:56.295Z,13.77
2022-09-24T14:33:27.132Z,12.20
2022-09-24T14:35:56.383Z,11.33
2022-09-24T14:38:26.421Z,13.40
2022-09-24T14:40:56.979Z,12.80
2022-09-24T14:43:31.428Z,11.10
2022-09-24T14:46:04.421Z,11.90
2022-09-24T14:48:33.721Z,12.33
2022-09-24T14:51:02.089Z,12.17
2022-09-24T14:53:34.220Z,12.73
2022-09-24T14:56:03.504Z,11.70
2022-09-24T14:58:37.300Z,11.07
2022-09-24T15:01:08.194Z,12.30
2022-09-24T15:03:40.893Z,29.63
2022-09-24T15:06:19.357Z,13.97
2022-09-24T15:08:54.085Z,11.67
2022-09-24T15:11:27.708Z,11.13
2022-09-24T15:14:01.683Z,12.90
2022-09-24T15:16:32.027Z,12.60
2022-09-24T15:19:11.134Z,12.70
2022-09-24T15:21:39.040Z,12.00
2022-09-24T15:24:07.172Z,11.73
2022-09-24T15:26:37.322Z,12.80
2022-09-24T15:29:07.470Z,12.80
2022-09-24T15:31:35.473Z,12.50
2022-09-24T15:34:03.485Z,12.70
2022-09-24T15:36:31.415Z,11.90
2022-09-24T15:39:02.139Z,13.17
2022-09-24T15:41:30.031Z,12.20
2022-09-24T15:43:59.003Z,12.27
2022-09-24T15:46:28.336Z,13.10
2022-09-24T15:48:56.246Z,12.87
2022-09-24T15:51:24.600Z,13.00
2022-09-24T15:53:52.571Z,12.33
2022-09-24T15:56:20.473Z,13.13
2022-09-24T15:58:48.379Z,12.60
2022-09-24T16:01:19.218Z,11.60
2022-09-24T16:03:48.637Z,12.50
2022-09-24T16:06:16.604Z,12.60
2022-09-24T16:08:44.523Z,12.57
2022-09-24T16:11:12.453Z,12.30
2022-09-24T16:13:40.451Z,12.50
2022-09-24T16:16:08.974Z,12.37
2022-09-24T16:18:39.766Z,13.53
2022-09-24T16:21:09.551Z,13.97
2022-09-24T16:23:37.480Z,13.30
2022-09-24T16:26:05.708Z,14.30
2022-09-24T16:28:33.640Z,14.10
2022-09-24T16:31:06.342Z,13.43
2022-09-24T16:33:38.852Z,36.23
2022-09-24T16:36:07.294Z,16.03
2022-09-24T16:38:37.412Z,15.93
2022-09-24T16:41:06.126Z,14.37
2022-09-24T16:43:34.231Z,14.90
2022-09-24T16:46:03.656Z,15.10
2022-09-24T16:48:31.933Z,15.20
2022-09-24T16:51:04.256Z,15.73
2022-09-24T16:53:34.143Z,15.93
2022-09-24T16:56:08.396Z,15.87
2022-09-24T16:58:36.613Z,15.30
2022-09-24T17:01:06.071Z,15.50
2022-09-24T17:03:34.223Z,14.87
2022-09-24T17:06:02.473Z,14.63
2022-09-24T17:08:45.947Z,15.07
2022-09-24T17:11:16.300Z,16.00
2022-09-24T17:13:44.500Z,16.60
2022-09-24T17:16:12.522Z,15.60
2022-09-24T17:18:40.618Z,15.00
2022-09-24T17:21:11.163Z,15.57
2022-09-24T17:23:39.889Z,16.00
2022-09-24T17:26:11.504Z,17.73
2022-09-24T17:28:42.125Z,16.10
2022-09-24T17:31:11.159Z,16.27
2022-09-24T17:33:43.267Z,18.27
2022-09-24T17:36:14.247Z,17.13
2022-09-24T17:38:43.000Z,17.10
2022-09-24T17:41:13.131Z,17.70
2022-09-24T17:43:43.072Z,18.13
2022-09-24T17:46:14.418Z,17.60
2022-09-24T17:48:44.508Z,18.80
2022-09-24T17:51:15.032Z,17.47
2022-09-24T17:53:43.238Z,17.77
2022-09-24T17:56:12.632Z,21.40
2022-09-24T17:58:43.775Z,21.67
2022-09-24T18:01:13.580Z,41.50
2022-09-24T18:03:42.044Z,27.10
2022-09-24T18:06:13.681Z,22.27
2022-09-24T18:08:42.988Z,24.13
2022-09-24T18:11:12.664Z,23.57
2022-09-24T18:13:42.315Z,23.07
2022-09-24T18:16:12.662Z,25.20
2022-09-24T18:18:41.021Z,25.27
2022-09-24T18:21:11.093Z,24.93
2022-09-24T18:23:39.463Z,22.67
2022-09-24T18:26:10.537Z,24.27
2022-09-24T18:28:39.741Z,26.50
2022-09-24T18:31:10.391Z,24.60
2022-09-24T18:33:40.137Z,30.07
2022-09-24T18:36:10.932Z,34.10
2022-09-24T18:38:39.220Z,31.80
2022-09-24T18:41:09.449Z,30.93
2022-09-24T18:43:37.541Z,30.70
2022-09-24T18:46:31.750Z,30.77
2022-09-24T18:49:00.645Z,31.27
2022-09-24T18:51:29.738Z,29.43
2022-09-24T18:53:59.064Z,33.27
2022-09-24T18:56:27.911Z,33.53
2022-09-24T18:58:56.990Z,33.67
2022-09-24T19:01:25.378Z,33.00
2022-09-24T19:03:55.074Z,30.40
2022-09-24T19:06:23.167Z,28.90
2022-09-24T19:08:51.109Z,25.87
2022-09-24T19:11:19.104Z,27.17
2022-09-24T19:13:49.920Z,28.30
2022-09-24T19:16:19.085Z,28.57
2022-09-24T19:18:47.226Z,28.47
2022-09-24T19:21:16.507Z,24.87
2022-09-24T19:23:46.328Z,23.37
2022-09-24T19:26:16.140Z,25.47
2022-09-24T19:28:45.386Z,28.33
2022-09-24T19:31:14.719Z,30.27
2022-09-24T19:33:42.759Z,28.30
2022-09-24T19:36:11.814Z,27.63
2022-09-24T19:38:42.286Z,29.20
2022-09-24T19:41:13.419Z,29.83
2022-09-24T19:43:43.650Z,26.67
2022-09-24T19:46:14.578Z,25.90
2022-09-24T19:48:44.203Z,30.00
2022-09-24T19:51:15.115Z,29.97
2022-09-24T19:53:44.688Z,28.97
2022-09-24T19:56:13.013Z,30.70
2022-09-24T19:58:41.271Z,31.67
2022-09-24T20:01:13.684Z,30.93
2022-09-24T20:03:44.865Z,33.70
2022-09-24T20:06:18.110Z,29.40
2022-09-24T20:08:48.675Z,30.47
2022-09-24T20:11:20.645Z,29.83
2022-09-24T20:13:48.982Z,27.27
2022-09-24T20:16:19.688Z,29.00
2022-09-24T20:18:48.164Z,29.40
2022-09-24T20:21:18.342Z,28.70
2022-09-24T20:23:48.327Z,30.20
2022-09-24T20:26:34.938Z,30.13
2022-09-24T20:29:03.602Z,30.30
2022-09-24T20:31:31.663Z,30.63
2022-09-24T20:34:00.880Z,31.90
2022-09-24T20:36:29.060Z,29.17
2022-09-24T20:38:58.840Z,30.67
2022-09-24T20:41:27.231Z,32.97
2022-09-24T20:43:56.390Z,31.53
2022-09-24T20:46:25.501Z,33.07
2022-09-24T20:48:53.943Z,31.63
2022-09-24T20:51:22.765Z,25.77
2022-09-24T20:53:51.101Z,28.77
2022-09-24T20:56:21.158Z,32.17
2022-09-24T20:58:50.299Z,33.37
2022-09-24T21:01:18.683Z,33.37
2022-09-24T21:03:49.874Z,34.00
2022-09-24T21:06:20.735Z,34.70
2022-09-24T21:08:48.725Z,31.83
2022-09-24T21:11:19.038Z,37.87
2022-09-24T21:13:50.210Z,37.10
2022-09-24T21:16:19.836Z,39.80
2022-09-24T21:18:48.555Z,35.37
2022-09-24T21:21:17.871Z,35.37
2022-09-24T21:23:47.008Z,33.23
2022-09-24T21:26:16.707Z,34.00
2022-09-24T21:28:45.311Z,39.03
2022-09-24T21:31:15.330Z,36.50
2022-09-24T21:33:46.287Z,36.00
2022-09-24T21:36:18.611Z,35.87
2022-09-24T21:38:47.074Z,34.50
2022-09-24T21:41:15.013Z,38.07
2022-09-24T21:43:42.944Z,35.73
2022-09-24T21:46:11.139Z,37.37
2022-09-24T21:48:40.518Z,36.43
2022-09-24T21:51:09.886Z,39.07
2022-09-24T21:53:38.831Z,36.17
2022-09-24T21:56:07.396Z,39.23
2022-09-24T21:58:35.354Z,37.57
2022-09-24T22:01:05.285Z,40.90
2022-09-24T22:03:33.499Z,38.53
2022-09-24T22:06:04.926Z,38.80
2022-09-24T22:08:33.018Z,41.83
2022-09-24T22:11:02.512Z,37.60
2022-09-24T22:13:31.014Z,39.37
2022-09-24T22:15:59.857Z,40.50
2022-09-24T22:18:28.739Z,38.57
2022-09-24T22:20:57.482Z,40.70
2022-09-24T22:23:26.881Z,37.67
2022-09-24T22:25:56.273Z,40.80
2022-09-24T22:28:25.257Z,42.80
2022-09-24T22:30:53.949Z,41.60
2022-09-24T22:33:40.027Z,36.07
2022-09-24T22:36:08.341Z,35.30
2022-09-24T22:38:37.876Z,39.17
2022-09-24T22:41:10.780Z,44.50
2022-09-24T22:43:39.168Z,41.87
2022-09-24T22:46:09.195Z,41.17
2022-09-24T22:48:37.282Z,39.93
2022-09-24T22:51:06.463Z,42.43
2022-09-24T22:53:35.121Z,44.27
2022-09-24T22:56:05.587Z,46.13
2022-09-24T22:58:33.977Z,46.17
2022-09-24T23:01:08.633Z,38.97
2022-09-24T23:03:36.903Z,39.90
2022-09-24T23:06:06.133Z,38.27
2022-09-24T23:08:34.677Z,43.30
2022-09-24T23:11:08.944Z,42.60
2022-09-24T23:13:38.112Z,41.77
2022-09-24T23:16:11.668Z,39.83
2022-09-24T23:18:39.946Z,39.77
2022-09-24T23:21:09.068Z,38.90
2022-09-24T23:23:37.215Z,40.00
2022-09-24T23:26:07.123Z,45.57
2022-09-24T23:28:37.158Z,41.07
2022-09-24T23:31:05.571Z,42.63
2022-09-24T23:33:34.396Z,41.53
2022-09-24T23:36:03.150Z,40.87
2022-09-24T23:38:31.285Z,39.07
2022-09-24T23:41:00.728Z,45.43
2022-09-24T23:43:29.245Z,43.67
2022-09-24T23:45:58.699Z,41.37
2022-09-24T23:48:27.148Z,41.70
2022-09-24T23:50:55.533Z,42.87
2022-09-24T23:53:23.541Z,44.13
2022-09-24T23:55:53.919Z,41.10
2022-09-24T23:58:25.195Z,45.77
